createdAt,value
2023-04-27T00:01:45.440Z,7.40
2023-04-27T00:04:14.739Z,7.17
2023-04-27T00:06:44.011Z,7.50
2023-04-27T00:09:12.756Z,7.13
2023-04-27T00:11:41.627Z,7.00
2023-04-27T00:14:09.986Z,7.03
2023-04-27T00:16:39.973Z,7.30
2023-04-27T00:19:08.954Z,7.33
2023-04-27T00:21:37.529Z,7.30
2023-04-27T00:24:06.430Z,7.27
2023-04-27T00:26:34.923Z,8.37
2023-04-27T00:29:03.882Z,7.77
2023-04-27T00:31:32.600Z,7.87
2023-04-27T00:34:02.236Z,7.17
2023-04-27T00:36:31.284Z,7.13
2023-04-27T00:38:59.772Z,7.20
2023-04-27T00:41:28.359Z,7.40
2023-04-27T00:43:57.655Z,7.17
2023-04-27T00:46:27.876Z,6.77
2023-04-27T00:48:57.225Z,6.73
2023-04-27T00:51:30.106Z,6.73
2023-04-27T00:53:59.378Z,7.47
2023-04-27T00:56:28.169Z,6.57
2023-04-27T00:58:57.048Z,6.87
2023-04-27T01:01:26.906Z,7.30
2023-04-27T01:03:56.154Z,6.43
2023-04-27T01:06:28.232Z,7.23
2023-04-27T01:08:56.615Z,6.47
2023-04-27T01:11:25.490Z,7.90
2023-04-27T01:13:54.793Z,6.67
2023-04-27T01:16:23.265Z,7.00
2023-04-27T01:18:51.381Z,7.03
2023-04-27T01:21:20.028Z,7.03
2023-04-27T01:23:49.961Z,7.23
2023-04-27T01:26:18.502Z,7.03
2023-04-27T01:28:47.044Z,7.23
2023-04-27T01:31:16.052Z,7.03
2023-04-27T01:33:44.366Z,7.17
2023-04-27T01:36:15.032Z,7.23
2023-04-27T01:38:43.669Z,7.00
2023-04-27T01:41:16.093Z,7.77
2023-04-27T01:43:44.361Z,6.27
2023-04-27T01:46:15.620Z,6.73
2023-04-27T01:48:43.939Z,7.37
2023-04-27T01:51:12.826Z,6.77
2023-04-27T01:53:42.869Z,6.23
2023-04-27T01:56:11.413Z,7.17
2023-04-27T01:58:41.181Z,6.77
2023-04-27T02:01:10.140Z,6.23
2023-04-27T02:03:38.866Z,6.20
2023-04-27T02:06:08.281Z,6.00
2023-04-27T02:08:36.888Z,5.97
2023-04-27T02:11:05.666Z,6.83
2023-04-27T02:13:33.946Z,6.53
2023-04-27T02:16:05.225Z,6.23
2023-04-27T02:18:33.882Z,6.80
2023-04-27T02:21:02.711Z,5.97
2023-04-27T02:23:31.396Z,6.13
2023-04-27T02:26:00.355Z,6.00
2023-04-27T02:28:28.815Z,7.10
2023-04-27T02:30:58.048Z,5.93
2023-04-27T02:33:27.656Z,6.60
2023-04-27T02:35:56.230Z,5.77
2023-04-27T02:38:24.550Z,6.07
2023-04-27T02:40:55.422Z,6.07
2023-04-27T02:43:23.920Z,6.53
2023-04-27T02:45:52.573Z,6.30
2023-04-27T02:48:21.174Z,6.17
2023-04-27T02:50:51.815Z,6.80
2023-04-27T02:53:20.085Z,6.33
2023-04-27T02:55:49.211Z,6.23
2023-04-27T02:58:18.010Z,6.63
2023-04-27T03:00:48.237Z,6.37
2023-04-27T03:03:17.358Z,5.80
2023-04-27T03:05:46.484Z,7.07
2023-04-27T03:08:16.276Z,6.03
2023-04-27T03:10:44.784Z,6.20
2023-04-27T03:13:13.213Z,6.80
2023-04-27T03:15:41.883Z,6.20
2023-04-27T03:18:10.066Z,6.50
2023-04-27T03:20:38.907Z,6.67
2023-04-27T03:23:07.168Z,6.33
2023-04-27T03:25:36.991Z,5.90
2023-04-27T03:28:06.710Z,5.87
2023-04-27T03:30:35.615Z,6.90
2023-04-27T03:33:04.623Z,6.30
2023-04-27T03:35:33.266Z,5.83
2023-04-27T03:38:01.461Z,6.17
2023-04-27T03:40:30.570Z,6.60
2023-04-27T03:43:01.562Z,6.40
2023-04-27T03:45:30.254Z,6.53
2023-04-27T03:47:58.407Z,6.40
2023-04-27T03:50:28.417Z,5.73
2023-04-27T03:52:58.237Z,5.90
2023-04-27T03:55:26.930Z,6.27
2023-04-27T03:57:55.632Z,5.80
2023-04-27T04:00:26.217Z,5.50
2023-04-27T04:02:55.522Z,5.47
2023-04-27T04:05:24.517Z,5.07
2023-04-27T04:07:52.899Z,5.60
2023-04-27T04:10:21.832Z,5.90
2023-04-27T04:12:52.363Z,5.37
2023-04-27T04:15:21.182Z,5.57
2023-04-27T04:17:53.448Z,6.17
2023-04-27T04:20:22.689Z,5.10
2023-04-27T04:22:51.320Z,4.90
2023-04-27T04:25:20.817Z,6.03
2023-04-27T04:27:49.152Z,5.17
2023-04-27T04:30:18.039Z,5.40
2023-04-27T04:32:46.501Z,5.80
2023-04-27T04:35:17.818Z,5.53
2023-04-27T04:37:46.796Z,5.30
2023-04-27T04:40:15.911Z,5.90
2023-04-27T04:42:44.247Z,5.87
2023-04-27T04:45:14.056Z,5.67
2023-04-27T04:47:44.770Z,6.40
2023-04-27T04:50:13.447Z,4.83
2023-04-27T04:52:43.312Z,5.17
2023-04-27T04:55:12.183Z,6.03
2023-04-27T04:57:40.539Z,5.27
2023-04-27T05:00:12.670Z,6.17
2023-04-27T05:02:42.035Z,6.37
2023-04-27T05:05:11.306Z,5.93
2023-04-27T05:07:40.582Z,5.40
2023-04-27T05:10:11.061Z,5.83
2023-04-27T05:12:39.690Z,5.57
2023-04-27T05:15:09.296Z,5.77
2023-04-27T05:17:37.744Z,6.37
2023-04-27T05:20:08.622Z,6.80
2023-04-27T05:22:37.233Z,6.47
2023-04-27T05:25:07.189Z,6.63
2023-04-27T05:27:37.316Z,5.27
2023-04-27T05:30:06.678Z,5.93
2023-04-27T05:32:36.839Z,5.27
2023-04-27T05:35:06.029Z,5.30
2023-04-27T05:37:34.317Z,5.47
2023-04-27T05:40:04.145Z,5.80
2023-04-27T05:42:32.942Z,5.63
2023-04-27T05:45:03.509Z,4.90
2023-04-27T05:47:31.982Z,5.10
2023-04-27T05:50:00.455Z,4.70
2023-04-27T05:52:31.078Z,5.30
2023-04-27T05:55:00.317Z,6.17
2023-04-27T05:57:29.106Z,6.50
2023-04-27T05:59:57.858Z,5.67
2023-04-27T06:02:27.989Z,5.33
2023-04-27T06:04:57.026Z,5.80
2023-04-27T06:07:25.283Z,4.83
2023-04-27T06:09:53.829Z,4.30
2023-04-27T06:12:22.284Z,5.00
2023-04-27T06:14:50.939Z,5.07
2023-04-27T06:17:19.156Z,5.63
2023-04-27T06:19:49.147Z,6.43
2023-04-27T06:22:17.484Z,6.83
2023-04-27T06:24:46.778Z,10.50
2023-04-27T06:27:15.054Z,7.43
2023-04-27T06:29:43.556Z,6.00
2023-04-27T06:32:12.216Z,5.00
2023-04-27T06:34:41.375Z,4.93
2023-04-27T06:37:11.176Z,4.47
2023-04-27T06:39:40.642Z,4.70
2023-04-27T06:42:08.760Z,4.63
2023-04-27T06:44:39.280Z,4.57
2023-04-27T06:47:07.694Z,3.93
2023-04-27T06:49:36.548Z,4.30
2023-04-27T06:52:05.229Z,3.90
2023-04-27T06:54:35.094Z,3.73
2023-04-27T06:57:03.318Z,4.60
2023-04-27T06:59:31.839Z,4.03
2023-04-27T07:02:00.502Z,3.93
2023-04-27T07:04:30.245Z,4.50
2023-04-27T07:06:58.759Z,4.07
2023-04-27T07:09:28.893Z,3.80
2023-04-27T07:12:01.163Z,4.00
2023-04-27T07:14:30.519Z,4.33
2023-04-27T07:16:58.884Z,6.27
2023-04-27T07:19:27.545Z,4.63
2023-04-27T07:21:56.091Z,4.40
2023-04-27T07:24:24.852Z,3.93
2023-04-27T07:26:53.122Z,4.20
2023-04-27T07:29:26.896Z,3.70
2023-04-27T07:31:56.354Z,4.17
2023-04-27T07:34:25.171Z,3.57
2023-04-27T07:36:54.957Z,3.30
2023-04-27T07:39:23.998Z,3.20
2023-04-27T07:41:52.924Z,4.00
2023-04-27T07:44:22.743Z,3.40
2023-04-27T07:46:54.065Z,4.17
2023-04-27T07:49:22.678Z,3.90
2023-04-27T07:51:50.985Z,3.93
2023-04-27T07:54:19.411Z,4.00
2023-04-27T07:56:47.686Z,2.90
2023-04-27T07:59:16.582Z,3.30
2023-04-27T08:01:46.646Z,3.00
2023-04-27T08:04:16.123Z,3.07
2023-04-27T08:06:46.711Z,3.43
2023-04-27T08:09:16.045Z,2.87
2023-04-27T08:11:44.520Z,2.90
2023-04-27T08:14:14.152Z,3.93
2023-04-27T08:16:42.960Z,2.80
2023-04-27T08:19:13.218Z,4.10
2023-04-27T08:21:41.635Z,4.30
2023-04-27T08:24:10.151Z,4.27
2023-04-27T08:26:38.571Z,4.27
2023-04-27T08:29:19.284Z,4.13
2023-04-27T08:31:53.765Z,3.53
2023-04-27T08:34:24.908Z,3.60
2023-04-27T08:36:53.911Z,3.37
2023-04-27T08:39:22.734Z,3.43
2023-04-27T08:41:51.653Z,3.20
2023-04-27T08:44:20.596Z,3.47
2023-04-27T08:46:49.096Z,3.97
2023-04-27T08:49:18.021Z,3.47
2023-04-27T08:51:47.913Z,3.87
2023-04-27T08:54:16.421Z,2.97
2023-04-27T08:56:44.599Z,2.77
2023-04-27T08:59:18.027Z,2.63
2023-04-27T09:01:48.637Z,2.17
2023-04-27T09:04:18.695Z,2.60
2023-04-27T09:06:49.763Z,3.27
2023-04-27T09:09:25.174Z,2.60
2023-04-27T09:11:53.984Z,3.37
2023-04-27T09:14:24.688Z,3.43
2023-04-27T09:16:58.573Z,3.27
2023-04-27T09:19:28.594Z,3.00
2023-04-27T09:22:09.315Z,3.20
2023-04-27T09:24:38.005Z,2.33
2023-04-27T09:27:08.960Z,3.30
2023-04-27T09:29:39.087Z,3.33
2023-04-27T09:32:17.745Z,3.53
2023-04-27T09:34:46.522Z,2.73
2023-04-27T09:37:16.607Z,2.70
2023-04-27T09:39:49.954Z,2.50
2023-04-27T09:42:18.775Z,2.37
2023-04-27T09:44:47.603Z,2.60
2023-04-27T09:47:16.177Z,2.70
2023-04-27T09:49:44.988Z,2.10
2023-04-27T09:52:13.218Z,2.53
2023-04-27T09:54:43.328Z,2.60
2023-04-27T09:57:26.276Z,2.27
2023-04-27T10:00:10.835Z,2.40
2023-04-27T10:02:53.164Z,2.40
2023-04-27T10:06:06.757Z,2.77
2023-04-27T10:08:35.997Z,2.60
2023-04-27T10:11:17.086Z,2.40
2023-04-27T10:13:54.456Z,2.27
2023-04-27T10:16:23.963Z,2.47
2023-04-27T10:18:53.844Z,2.60
2023-04-27T10:21:23.667Z,2.30
2023-04-27T10:23:53.075Z,2.73
2023-04-27T10:26:26.718Z,2.23
2023-04-27T10:28:59.711Z,2.70
2023-04-27T10:31:31.340Z,1.97
2023-04-27T10:34:10.398Z,2.10
2023-04-27T10:36:41.064Z,2.27
2023-04-27T10:39:17.476Z,3.07
2023-04-27T10:41:55.152Z,2.53
2023-04-27T10:44:28.634Z,2.03
2023-04-27T10:46:59.782Z,2.47
2023-04-27T10:49:29.675Z,1.90
2023-04-27T10:51:59.714Z,2.13
2023-04-27T10:54:29.958Z,2.30
2023-04-27T10:57:05.816Z,1.77
2023-04-27T10:59:35.088Z,2.30
2023-04-27T11:02:04.119Z,2.10
2023-04-27T11:04:40.320Z,1.70
2023-04-27T11:07:10.160Z,2.10
2023-04-27T11:09:39.519Z,1.93
2023-04-27T11:12:13.999Z,2.80
2023-04-27T11:14:42.487Z,2.40
2023-04-27T11:17:13.214Z,2.30
2023-04-27T11:19:48.322Z,2.00
2023-04-27T11:22:17.888Z,1.93
2023-04-27T11:24:50.414Z,2.00
2023-04-27T11:27:22.289Z,1.57
2023-04-27T11:29:50.723Z,1.80
2023-04-27T11:32:22.984Z,1.73
2023-04-27T11:34:53.743Z,2.33
2023-04-27T11:37:24.947Z,1.73
2023-04-27T11:39:54.612Z,2.20
2023-04-27T11:42:25.967Z,2.10
2023-04-27T11:44:55.495Z,1.60
2023-04-27T11:47:25.487Z,1.70
2023-04-27T11:49:56.354Z,1.47
2023-04-27T11:52:29.332Z,1.47
2023-04-27T11:54:58.224Z,1.67
2023-04-27T11:57:29.261Z,2.10
2023-04-27T11:59:58.856Z,2.67
2023-04-27T12:02:28.991Z,2.47
2023-04-27T12:04:59.896Z,2.50
2023-04-27T12:07:28.733Z,2.43
2023-04-27T12:09:59.487Z,2.57
2023-04-27T12:12:31.661Z,2.00
2023-04-27T12:15:00.118Z,2.50
2023-04-27T12:17:28.805Z,2.50
2023-04-27T12:19:57.142Z,2.20
2023-04-27T12:22:25.667Z,2.63
2023-04-27T12:24:54.034Z,2.00
2023-04-27T12:27:22.697Z,1.50
2023-04-27T12:29:54.138Z,1.83
2023-04-27T12:32:23.682Z,1.73
2023-04-27T12:34:52.311Z,2.50
2023-04-27T12:37:21.542Z,1.90
2023-04-27T12:39:49.878Z,1.87
2023-04-27T12:42:23.252Z,1.87
2023-04-27T12:44:53.458Z,2.63
2023-04-27T12:47:45.887Z,1.90
2023-04-27T12:50:11.692Z,1.80
2023-04-27T12:52:40.469Z,2.50
2023-04-27T12:55:18.042Z,1.70
2023-04-27T12:57:53.882Z,2.00
2023-04-27T13:00:23.698Z,2.20
2023-04-27T13:02:52.589Z,2.23
2023-04-27T13:05:22.112Z,2.30
2023-04-27T13:07:50.879Z,2.57
2023-04-27T13:10:19.169Z,2.20
2023-04-27T13:12:47.960Z,2.43
2023-04-27T13:15:16.340Z,2.70
2023-04-27T13:17:46.615Z,2.17
2023-04-27T13:20:15.520Z,2.00
2023-04-27T13:22:44.027Z,2.10
2023-04-27T13:25:12.313Z,2.00
2023-04-27T13:27:41.002Z,2.10
2023-04-27T13:30:10.527Z,2.57
2023-04-27T13:32:39.172Z,2.00
2023-04-27T13:35:10.072Z,2.50
2023-04-27T13:37:40.008Z,2.60
2023-04-27T13:40:10.940Z,2.20
2023-04-27T13:42:39.891Z,2.33
2023-04-27T13:45:08.769Z,2.73
2023-04-27T13:47:37.905Z,2.30
2023-04-27T13:50:09.637Z,2.43
2023-04-27T13:52:39.023Z,2.97
2023-04-27T13:55:10.301Z,1.83
2023-04-27T13:57:39.306Z,2.10
2023-04-27T14:00:11.331Z,2.53
2023-04-27T14:02:40.620Z,1.90
2023-04-27T14:05:11.242Z,2.40
2023-04-27T14:07:39.963Z,2.20
2023-04-27T14:10:09.462Z,2.27
2023-04-27T14:12:38.478Z,2.13
2023-04-27T14:15:07.332Z,2.30
2023-04-27T14:17:35.886Z,1.73
2023-04-27T14:20:06.934Z,1.80
2023-04-27T14:22:36.966Z,2.10
2023-04-27T14:25:05.952Z,1.73
2023-04-27T14:27:34.587Z,2.20
2023-04-27T14:30:03.623Z,2.10
2023-04-27T14:32:32.552Z,2.53
2023-04-27T14:35:01.111Z,2.57
2023-04-27T14:37:29.628Z,2.63
2023-04-27T14:39:59.872Z,2.40
2023-04-27T14:42:28.465Z,2.23
2023-04-27T14:44:56.764Z,2.13
2023-04-27T14:47:25.942Z,2.53
2023-04-27T14:49:54.334Z,2.17
2023-04-27T14:52:22.838Z,2.40
2023-04-27T14:54:51.269Z,2.40
2023-04-27T14:57:21.235Z,2.30
2023-04-27T14:59:49.548Z,2.70
2023-04-27T15:02:18.689Z,2.17
2023-04-27T15:04:47.236Z,2.13
2023-04-27T15:07:15.781Z,2.67
2023-04-27T15:09:44.209Z,3.03
2023-04-27T15:12:12.938Z,2.63
2023-04-27T15:14:42.478Z,2.30
2023-04-27T15:17:13.073Z,2.07
2023-04-27T15:19:41.486Z,2.40
2023-04-27T15:22:11.267Z,2.60
2023-04-27T15:24:39.497Z,1.87
2023-04-27T15:27:09.754Z,2.00
2023-04-27T15:29:38.503Z,1.90
2023-04-27T15:32:08.607Z,2.37
2023-04-27T15:34:37.075Z,1.77
2023-04-27T15:37:05.608Z,1.90
2023-04-27T15:39:33.868Z,2.30
2023-04-27T15:42:03.138Z,2.00
2023-04-27T15:44:31.501Z,2.40
2023-04-27T15:47:00.034Z,1.93
2023-04-27T15:49:30.550Z,2.17
2023-04-27T15:51:59.281Z,2.30
2023-04-27T15:54:27.494Z,2.20
2023-04-27T15:56:56.478Z,2.07
2023-04-27T15:59:24.829Z,1.57
2023-04-27T16:01:53.531Z,1.50
2023-04-27T16:04:22.090Z,1.70
2023-04-27T16:06:52.258Z,2.23
2023-04-27T16:09:21.195Z,2.47
2023-04-27T16:11:49.890Z,3.07
2023-04-27T16:14:18.276Z,2.87
2023-04-27T16:16:47.161Z,3.23
2023-04-27T16:19:15.966Z,2.50
2023-04-27T16:21:45.087Z,2.40
2023-04-27T16:24:14.865Z,2.43
2023-04-27T16:26:43.349Z,2.20
2023-04-27T16:29:11.734Z,2.50
2023-04-27T16:31:41.057Z,2.10
2023-04-27T16:34:09.347Z,2.40
2023-04-27T16:36:37.932Z,2.00
2023-04-27T16:39:06.272Z,2.60
2023-04-27T16:41:36.100Z,2.50
2023-04-27T16:44:04.335Z,2.15
2023-04-27T16:46:32.843Z,2.40
2023-04-27T16:49:01.482Z,2.00
2023-04-27T16:51:30.413Z,2.03
2023-04-27T16:53:58.949Z,2.42
2023-04-27T16:56:28.665Z,2.78
2023-04-27T16:58:58.398Z,2.40
2023-04-27T17:01:29.988Z,3.10
2023-04-27T17:03:59.313Z,2.33
2023-04-27T17:06:29.952Z,2.47
2023-04-27T17:08:58.751Z,2.33
2023-04-27T17:11:27.434Z,2.70
2023-04-27T17:13:55.771Z,2.70
2023-04-27T17:16:27.161Z,2.60
2023-04-27T17:18:56.173Z,2.07
2023-04-27T17:21:25.073Z,2.30
2023-04-27T17:23:53.360Z,2.57
2023-04-27T17:26:22.672Z,2.27
2023-04-27T17:28:50.908Z,2.73
2023-04-27T17:31:19.508Z,2.10
2023-04-27T17:33:49.172Z,2.13
2023-04-27T17:36:17.812Z,2.37
2023-04-27T17:38:46.386Z,2.30
2023-04-27T17:41:15.306Z,2.30
2023-04-27T17:43:43.681Z,2.60
2023-04-27T17:46:12.448Z,2.67
2023-04-27T17:48:40.662Z,3.47
2023-04-27T17:51:10.732Z,2.87
2023-04-27T17:53:39.028Z,2.17
2023-04-27T17:56:07.762Z,2.30
2023-04-27T17:58:36.274Z,2.40
2023-04-27T18:01:06.006Z,2.57
2023-04-27T18:03:34.494Z,2.53
2023-04-27T18:06:03.182Z,3.00
2023-04-27T18:08:32.993Z,3.70
2023-04-27T18:11:01.613Z,3.90
2023-04-27T18:13:31.888Z,3.43
2023-04-27T18:16:00.820Z,2.50
2023-04-27T18:18:29.568Z,2.70
2023-04-27T18:20:58.343Z,2.57
2023-04-27T18:23:26.984Z,3.60
2023-04-27T18:26:00.888Z,3.30
2023-04-27T18:28:29.186Z,3.70
2023-04-27T18:30:57.788Z,3.53
2023-04-27T18:33:26.285Z,2.70
2023-04-27T18:35:54.829Z,8.90
2023-04-27T18:38:23.273Z,9.23
2023-04-27T18:40:51.867Z,4.73
2023-04-27T18:43:21.560Z,3.87
2023-04-27T18:45:51.688Z,3.40
2023-04-27T18:48:20.079Z,4.13
2023-04-27T18:50:49.457Z,5.20
2023-04-27T18:53:17.787Z,6.77
2023-04-27T18:55:46.300Z,7.30
2023-04-27T18:58:14.696Z,8.63
2023-04-27T19:00:44.628Z,8.67
2023-04-27T19:03:13.161Z,9.50
2023-04-27T19:05:42.954Z,6.73
2023-04-27T19:08:11.724Z,7.63
2023-04-27T19:10:41.683Z,7.43
2023-04-27T19:13:10.134Z,7.50
2023-04-27T19:15:40.053Z,7.93
2023-04-27T19:18:11.465Z,7.53
2023-04-27T19:20:40.938Z,7.37
2023-04-27T19:23:12.253Z,7.70
2023-04-27T19:25:41.359Z,8.70
2023-04-27T19:28:10.329Z,9.53
2023-04-27T19:30:39.057Z,7.77
2023-04-27T19:33:09.056Z,7.43
2023-04-27T19:35:37.854Z,9.20
2023-04-27T19:38:06.533Z,7.93
2023-04-27T19:40:35.106Z,7.67
2023-04-27T19:43:03.705Z,9.43
2023-04-27T19:45:32.309Z,12.20
2023-04-27T19:48:00.680Z,13.40
2023-04-27T19:50:30.726Z,14.57
2023-04-27T19:52:59.021Z,13.27
2023-04-27T19:55:28.351Z,13.17
2023-04-27T19:57:56.775Z,11.53
2023-04-27T20:00:25.343Z,15.07
2023-04-27T20:02:54.345Z,17.03
2023-04-27T20:05:23.714Z,17.30
2023-04-27T20:07:53.950Z,22.33
2023-04-27T20:10:22.690Z,19.83
2023-04-27T20:12:56.866Z,18.13
2023-04-27T20:15:26.218Z,17.10
2023-04-27T20:17:54.714Z,15.43
2023-04-27T20:20:23.825Z,16.37
2023-04-27T20:22:53.485Z,14.97
2023-04-27T20:25:22.107Z,16.10
2023-04-27T20:27:50.355Z,14.73
2023-04-27T20:30:18.992Z,15.23
2023-04-27T20:32:47.419Z,15.07
2023-04-27T20:35:16.003Z,15.97
2023-04-27T20:37:44.572Z,16.47
2023-04-27T20:40:17.648Z,19.83
2023-04-27T20:42:46.664Z,19.50
2023-04-27T20:45:15.183Z,20.60
2023-04-27T20:47:43.563Z,19.67
2023-04-27T20:50:12.405Z,20.20
2023-04-27T20:52:40.713Z,19.77
2023-04-27T20:55:09.698Z,21.57
2023-04-27T20:57:39.232Z,21.33
2023-04-27T21:00:09.983Z,22.87
2023-04-27T21:02:38.426Z,22.53
2023-04-27T21:05:07.211Z,23.40
2023-04-27T21:07:35.497Z,22.37
2023-04-27T21:10:06.873Z,22.40
2023-04-27T21:12:35.645Z,20.23
2023-04-27T21:15:06.467Z,20.27
2023-04-27T21:17:34.697Z,19.83
2023-04-27T21:20:03.409Z,18.27
2023-04-27T21:22:31.753Z,18.70
2023-04-27T21:25:00.357Z,21.43
2023-04-27T21:27:29.351Z,19.73
2023-04-27T21:29:59.283Z,20.77
2023-04-27T21:32:28.861Z,18.97
2023-04-27T21:34:57.420Z,19.63
2023-04-27T21:37:25.891Z,17.33
2023-04-27T21:39:54.588Z,20.97
2023-04-27T21:42:22.930Z,20.47
2023-04-27T21:44:51.447Z,20.83
2023-04-27T21:47:19.911Z,21.87
2023-04-27T21:49:51.188Z,22.77
2023-04-27T21:52:21.487Z,22.67
2023-04-27T21:54:50.524Z,24.80
2023-04-27T21:57:20.007Z,25.17
2023-04-27T21:59:48.754Z,18.87
2023-04-27T22:02:17.240Z,16.40
2023-04-27T22:04:45.950Z,16.47
2023-04-27T22:07:15.676Z,16.03
2023-04-27T22:09:44.782Z,14.10
2023-04-27T22:12:13.196Z,18.67
2023-04-27T22:14:42.866Z,19.70
2023-04-27T22:17:12.554Z,20.30
2023-04-27T22:19:41.490Z,22.37
2023-04-27T22:22:10.384Z,19.43
2023-04-27T22:24:40.055Z,18.10
2023-04-27T22:27:08.621Z,21.33
2023-04-27T22:29:36.841Z,22.23
2023-04-27T22:32:05.816Z,23.10
2023-04-27T22:34:34.657Z,20.77
2023-04-27T22:37:03.513Z,20.83
2023-04-27T22:39:32.582Z,22.73
2023-04-27T22:42:02.297Z,20.93
2023-04-27T22:44:31.109Z,22.77
2023-04-27T22:47:00.739Z,22.50
2023-04-27T22:49:29.653Z,22.57
2023-04-27T22:51:58.324Z,22.33
2023-04-27T22:54:26.518Z,22.50
2023-04-27T22:56:55.212Z,23.80
2023-04-27T22:59:24.918Z,24.43
2023-04-27T23:01:53.808Z,24.77
2023-04-27T23:04:23.226Z,24.07
2023-04-27T23:06:53.826Z,25.30
2023-04-27T23:09:22.667Z,25.53
2023-04-27T23:11:51.317Z,22.77
2023-04-27T23:14:20.048Z,24.10
2023-04-27T23:16:49.907Z,24.90
2023-04-27T23:19:18.194Z,25.97
2023-04-27T23:21:46.932Z,22.70
2023-04-27T23:24:15.303Z,24.20
2023-04-27T23:26:43.920Z,22.87
2023-04-27T23:29:12.326Z,24.27
2023-04-27T23:31:41.265Z,22.27
2023-04-27T23:34:10.923Z,23.67
2023-04-27T23:36:39.965Z,22.03
2023-04-27T23:39:08.419Z,20.87
2023-04-27T23:41:37.190Z,22.07
2023-04-27T23:44:05.727Z,21.90
2023-04-27T23:46:34.673Z,21.17
2023-04-27T23:49:03.004Z,19.93
2023-04-27T23:51:33.209Z,19.53
2023-04-27T23:54:01.502Z,19.90
2023-04-27T23:56:30.118Z,20.80
2023-04-27T23:58:58.408Z,20.87
